Matheson, Canada
Current Conditions -  °F | °C
As of 7:49 PM on Saturday 20 Dec 2014 (Local Time) from CYTS Reporting Station
Broken Clouds Broken Clouds  
Wind Chill:   Ceiling: 1100
Heat Index:   Visibility: 15mi
Dew Point:   Wind: 0mph
Humidity: 92%   Direction: NA
Pressure: 30.24"   Gusts: NA
Location:  48.53°N, 80.47°W
Report Text: CYTS 210049Z 00000KT 15SM BKN011 BKN100 M13/M14 A3024 RMK SC5AC2 SLP271
Loading
Personal Weather Stations






























Interactive Weather Map New forecast layout! Learn more

10-Day Weather Forecast

Advertisements
Track Severe Weather on mobile